createdAt,value
2023-01-23T01:47:32.664Z,48.00
2023-01-23T01:50:03.893Z,47.40
2023-01-23T01:52:33.567Z,47.10
2023-01-23T01:55:11.268Z,46.70
2023-01-23T01:57:43.169Z,47.40
2023-01-23T02:00:19.512Z,48.20
2023-01-23T02:02:54.404Z,47.60
2023-01-23T02:05:26.482Z,46.10
2023-01-23T02:08:00.858Z,47.10
2023-01-23T02:10:30.312Z,47.70
2023-01-23T02:13:19.581Z,48.00
2023-01-23T02:15:49.201Z,47.90
2023-01-23T02:18:18.776Z,47.20
2023-01-23T02:20:49.660Z,46.10
2023-01-23T02:23:19.084Z,43.60
2023-01-23T02:25:49.356Z,44.50
2023-01-23T02:28:19.635Z,44.00
2023-01-23T02:30:49.189Z,43.90
2023-01-23T02:33:21.696Z,43.50
2023-01-23T02:36:20.215Z,41.80
2023-01-23T02:38:56.337Z,42.20
2023-01-23T02:41:34.146Z,42.50
2023-01-23T02:44:06.047Z,42.60
2023-01-23T02:49:04.666Z,41.20
2023-01-23T02:51:34.641Z,43.00
2023-01-23T02:54:10.344Z,43.60
2023-01-23T02:56:40.583Z,42.90
2023-01-23T02:59:42.740Z,42.80
2023-01-23T03:02:12.644Z,42.20
2023-01-23T03:04:42.678Z,43.10
2023-01-23T03:07:12.667Z,42.80
2023-01-23T03:09:44.152Z,43.70
2023-01-23T03:12:13.630Z,42.40
2023-01-23T03:14:45.284Z,43.00
2023-01-23T03:17:17.839Z,41.90
2023-01-23T03:19:56.285Z,41.70
2023-01-23T03:22:31.622Z,42.30
2023-01-23T03:25:06.747Z,41.50
2023-01-23T03:27:38.308Z,41.00
2023-01-23T03:30:22.637Z,41.10
2023-01-23T03:32:52.241Z,41.10
2023-01-23T03:35:34.654Z,41.10
2023-01-23T03:38:06.679Z,41.50
2023-01-23T03:40:54.261Z,41.50
2023-01-23T03:43:26.749Z,42.70
2023-01-23T03:45:56.323Z,43.00
2023-01-23T07:06:59.054Z,53.70
2023-01-23T07:09:28.396Z,53.10
2023-01-23T07:11:57.857Z,53.60
2023-01-23T07:14:28.900Z,53.30
2023-01-23T07:16:58.377Z,53.60
2023-01-23T07:19:28.418Z,54.10
2023-01-23T07:21:58.182Z,54.30
2023-01-23T07:24:30.076Z,54.10
2023-01-23T07:27:00.052Z,54.90
2023-01-23T07:29:29.992Z,54.50
2023-01-23T07:32:01.663Z,54.80
2023-01-23T07:34:31.065Z,55.00
2023-01-23T07:37:00.896Z,55.10
2023-01-23T07:39:30.480Z,54.90
2023-01-23T07:42:02.987Z,54.70
2023-01-23T07:44:32.432Z,54.80
2023-01-23T07:47:01.809Z,55.50
2023-01-23T07:49:31.183Z,56.00
2023-01-23T07:52:00.989Z,56.30
2023-01-23T07:54:31.101Z,56.80
2023-01-23T07:57:01.308Z,57.20
2023-01-23T08:02:28.185Z,57.90
2023-01-23T08:04:57.718Z,58.20
2023-01-23T08:07:27.368Z,58.50
2023-01-23T08:09:56.815Z,59.00
2023-01-23T08:12:26.629Z,60.10
2023-01-23T08:14:56.495Z,64.00
2023-01-23T08:17:25.892Z,67.10
2023-01-23T08:19:55.301Z,69.60
2023-01-23T08:22:24.692Z,70.00
2023-01-23T08:24:54.183Z,71.20
2023-01-23T08:27:23.726Z,73.40
2023-01-23T08:29:53.107Z,72.90
2023-01-23T08:32:22.669Z,73.90
2023-01-23T08:34:52.643Z,71.70
2023-01-23T08:37:21.999Z,74.30
2023-01-23T08:39:51.371Z,74.50
2023-01-23T08:42:21.341Z,75.60
2023-01-23T08:44:51.159Z,76.40
2023-01-23T08:47:20.582Z,76.30
2023-01-23T08:49:50.002Z,76.30
2023-01-23T08:52:19.412Z,75.60
2023-01-23T08:54:48.758Z,75.80
2023-01-23T08:57:18.589Z,75.80
2023-01-23T08:59:49.124Z,75.80
2023-01-23T09:11:17.649Z,76.40
2023-01-23T09:13:47.964Z,76.40
2023-01-23T09:16:17.893Z,75.90
2023-01-23T09:18:47.771Z,76.30
2023-01-23T09:21:19.525Z,77.30
2023-01-23T09:23:49.916Z,77.30
2023-01-23T09:26:20.987Z,77.60
2023-01-23T09:28:50.974Z,78.30
2023-01-23T09:31:20.486Z,78.90
2023-01-23T09:33:50.764Z,78.70
2023-01-23T09:36:33.712Z,78.70
2023-01-23T09:39:10.849Z,79.80
2023-01-23T09:41:40.852Z,79.50
2023-01-23T09:44:16.207Z,79.10
2023-01-23T09:46:55.542Z,79.50
2023-01-23T09:49:42.938Z,80.00
2023-01-23T09:52:18.511Z,80.30
2023-01-23T09:54:48.270Z,80.10
2023-01-23T09:57:22.746Z,80.80
2023-01-23T10:00:00.182Z,80.40
2023-01-23T10:02:31.094Z,80.00
2023-01-23T10:05:05.088Z,80.90
2023-01-23T10:07:46.826Z,80.70
2023-01-23T10:10:35.025Z,81.20
2023-01-23T10:13:10.892Z,81.20
2023-01-23T10:15:43.812Z,81.40
2023-01-23T10:18:19.052Z,81.30
2023-01-23T10:20:57.990Z,81.20
2023-01-23T10:23:27.522Z,81.00
2023-01-23T10:25:57.756Z,81.10
2023-01-23T10:28:27.115Z,81.20
2023-01-23T10:31:02.893Z,81.70
2023-01-23T10:33:54.854Z,81.30
2023-01-23T10:36:25.249Z,81.60
2023-01-23T10:39:02.496Z,81.50
2023-01-23T10:41:32.313Z,81.60
2023-01-23T10:44:02.451Z,81.50
2023-01-23T10:46:53.888Z,81.50
2023-01-23T10:49:32.130Z,81.80
2023-01-23T10:52:01.751Z,81.70
2023-01-23T10:54:32.845Z,81.90
2023-01-23T10:57:03.125Z,82.10
2023-01-23T10:59:35.370Z,82.20
2023-01-23T11:02:19.872Z,82.20
2023-01-23T11:04:51.851Z,82.00
2023-01-23T11:07:23.796Z,82.20
2023-01-23T11:09:58.175Z,82.20
2023-01-23T11:12:32.752Z,82.30
2023-01-23T11:15:20.739Z,82.30
2023-01-23T11:17:51.171Z,82.20
2023-01-23T11:20:31.973Z,82.20
2023-01-23T11:23:21.994Z,82.30
2023-01-23T11:25:53.910Z,82.20
2023-01-23T11:28:32.425Z,82.20
2023-01-23T11:31:15.682Z,82.20
2023-01-23T11:34:01.802Z,82.30
2023-01-23T11:36:40.449Z,82.40
2023-01-23T11:39:20.947Z,82.50
2023-01-23T11:41:50.694Z,82.70
2023-01-23T11:44:25.555Z,82.80
2023-01-23T11:47:12.535Z,82.60
2023-01-23T11:49:54.174Z,82.60
2023-01-23T11:52:39.819Z,82.50
2023-01-23T11:55:12.081Z,82.50
2023-01-23T11:57:50.711Z,82.70
2023-01-23T12:00:39.659Z,83.00
2023-01-23T12:03:21.724Z,82.90
2023-01-23T12:11:46.228Z,82.40
2023-01-23T12:14:29.139Z,82.60
2023-01-23T12:17:16.809Z,82.50
2023-01-23T12:20:02.328Z,82.30
2023-01-23T12:22:50.053Z,82.20
2023-01-23T12:25:21.530Z,82.20
2023-01-23T12:27:59.319Z,82.20
2023-01-23T12:30:31.783Z,82.30
2023-01-23T12:33:15.995Z,82.60
2023-01-23T12:35:52.899Z,82.80
2023-01-23T12:38:29.444Z,82.70
2023-01-23T12:41:05.073Z,82.80
2023-01-23T12:43:44.906Z,82.80
2023-01-23T12:46:20.658Z,82.80
2023-01-23T12:49:09.505Z,82.90
2023-01-23T12:51:40.981Z,82.90
2023-01-23T12:54:17.621Z,82.50
2023-01-23T12:59:29.071Z,82.50
2023-01-23T13:01:59.251Z,82.60
2023-01-23T13:04:44.312Z,82.80
2023-01-23T13:07:37.448Z,82.80
2023-01-23T13:10:24.963Z,82.60
2023-01-23T13:12:58.360Z,82.50
2023-01-23T13:15:41.150Z,82.60
2023-01-23T13:18:24.687Z,82.60
2023-01-23T13:21:15.029Z,82.90
2023-01-23T13:23:44.620Z,82.90
2023-01-23T13:26:24.557Z,82.90
2023-01-23T13:29:03.515Z,82.70
2023-01-23T13:31:48.064Z,82.60
2023-01-23T13:34:20.668Z,82.60
2023-01-23T13:36:51.205Z,82.60
2023-01-23T13:39:23.729Z,82.70
2023-01-23T13:42:12.476Z,82.50
2023-01-23T13:45:05.243Z,82.50
2023-01-23T14:24:58.668Z,82.80
2023-01-23T14:27:53.160Z,82.70
2023-01-23T14:30:32.440Z,83.00
2023-01-23T14:33:02.081Z,83.50
2023-01-23T14:35:35.451Z,83.30
2023-01-23T14:38:07.595Z,83.10
2023-01-23T14:40:49.282Z,83.00
2023-01-23T14:43:21.057Z,82.80
2023-01-23T14:45:51.995Z,82.70
2023-01-23T14:48:22.919Z,82.60
2023-01-23T14:50:52.379Z,82.70
2023-01-23T14:53:22.135Z,82.90
2023-01-23T14:55:53.487Z,83.00
2023-01-23T14:58:27.295Z,83.00
2023-01-23T15:00:57.341Z,82.80
2023-01-23T15:03:47.530Z,82.70
2023-01-23T15:06:18.348Z,82.50
2023-01-23T15:08:48.414Z,82.80
2023-01-23T15:11:18.803Z,83.00
2023-01-23T15:13:54.694Z,82.60
2023-01-23T15:16:26.293Z,82.90
2023-01-23T15:18:56.121Z,83.00
2023-01-23T15:21:31.708Z,83.10
2023-01-23T15:24:21.659Z,82.90
2023-01-23T15:27:02.633Z,82.80
2023-01-23T15:29:32.253Z,83.00
2023-01-23T15:32:02.528Z,83.00
2023-01-23T15:34:34.215Z,82.80
2023-01-23T15:37:03.907Z,82.80
2023-01-23T15:39:34.919Z,83.00
2023-01-23T15:42:07.901Z,83.30
2023-01-23T15:44:37.491Z,83.20
2023-01-23T15:47:08.097Z,83.00
2023-01-23T15:49:39.250Z,83.30
2023-01-23T15:52:17.864Z,83.70
2023-01-23T15:54:48.550Z,83.40
2023-01-23T15:57:19.176Z,83.70
2023-01-23T15:59:48.963Z,83.60
2023-01-23T16:02:31.158Z,83.40
2023-01-23T16:05:03.422Z,83.60
2023-01-23T16:07:35.874Z,83.70
2023-01-23T16:10:07.034Z,84.00
2023-01-23T16:12:40.607Z,83.80
2023-01-23T16:15:17.060Z,83.80
2023-01-23T16:17:47.451Z,84.00
2023-01-23T16:20:17.071Z,83.50
2023-01-23T16:49:51.896Z,85.90
2023-01-23T16:52:23.179Z,86.00
2023-01-23T16:54:54.687Z,85.90
2023-01-23T16:57:24.416Z,85.80
2023-01-23T16:59:54.343Z,86.00
2023-01-23T17:02:30.598Z,86.10
2023-01-23T17:05:00.025Z,86.30
2023-01-23T17:07:29.404Z,86.10
2023-01-23T17:09:59.020Z,86.10
2023-01-23T17:12:37.353Z,86.00
2023-01-23T17:15:06.892Z,85.90
2023-01-23T17:17:37.369Z,85.90
2023-01-23T17:20:07.415Z,85.70
2023-01-23T17:22:40.538Z,85.60
2023-01-23T17:25:17.561Z,85.80
2023-01-23T17:27:57.430Z,85.80
2023-01-23T17:30:36.802Z,85.90
2023-01-23T17:33:06.812Z,85.80
2023-01-23T17:35:39.941Z,85.70
2023-01-23T17:38:14.863Z,85.50
2023-01-23T17:40:44.505Z,85.30
2023-01-23T17:43:15.035Z,85.20
2023-01-23T17:45:46.948Z,85.10
2023-01-23T17:48:17.863Z,84.70
2023-01-23T17:50:48.754Z,84.60
2023-01-23T17:53:20.527Z,84.50
2023-01-23T17:55:54.773Z,84.60
2023-01-23T17:58:25.454Z,84.60
2023-01-23T18:00:55.944Z,84.50
2023-01-23T18:03:26.368Z,84.40
2023-01-23T18:05:55.872Z,84.20
2023-01-23T18:08:25.237Z,84.40
2023-01-23T18:10:58.103Z,84.50
2023-01-23T18:13:31.067Z,84.50
2023-01-23T18:16:15.924Z,84.80
2023-01-23T18:18:45.501Z,84.90
2023-01-23T18:21:17.041Z,85.20
2023-01-23T18:23:47.048Z,85.40
2023-01-23T18:26:20.095Z,85.60
2023-01-23T18:29:09.847Z,86.10
2023-01-23T18:31:45.789Z,86.20
2023-01-23T18:34:15.572Z,86.20
2023-01-23T18:36:51.461Z,86.40
2023-01-23T18:39:25.097Z,86.60
2023-01-23T18:42:12.569Z,86.80
2023-01-23T18:45:01.869Z,86.80
2023-01-23T18:47:31.839Z,86.90
2023-01-23T18:50:01.774Z,86.80
2023-01-23T18:52:31.160Z,86.80
2023-01-23T18:55:06.195Z,86.90
2023-01-23T18:57:36.772Z,86.90
2023-01-23T19:00:33.397Z,87.00
2023-01-23T19:03:12.496Z,87.10
2023-01-23T19:05:43.331Z,87.00
2023-01-23T19:08:35.470Z,87.00
2023-01-23T19:11:08.400Z,87.00
2023-01-23T19:13:46.410Z,86.90
2023-01-23T19:16:27.997Z,87.00
2023-01-23T19:19:15.811Z,87.00
2023-01-23T19:21:49.051Z,87.00
2023-01-23T19:24:22.140Z,86.90
2023-01-23T19:26:51.852Z,86.80
2023-01-23T19:29:23.110Z,86.50
2023-01-23T19:32:04.780Z,86.30
2023-01-23T19:34:36.719Z,86.20
2023-01-23T19:37:06.302Z,86.40
2023-01-23T19:39:35.814Z,86.60
2023-01-23T19:42:05.684Z,86.50
2023-01-23T19:44:35.653Z,86.40
2023-01-23T19:47:07.047Z,86.40
2023-01-23T19:49:36.461Z,86.50
2023-01-23T19:52:06.390Z,86.50
2023-01-23T19:54:36.447Z,86.50
2023-01-23T19:57:06.240Z,86.40
2023-01-23T19:59:36.416Z,86.50
2023-01-23T20:02:05.773Z,86.50
2023-01-23T20:04:36.220Z,86.30
2023-01-23T20:07:05.644Z,86.30
2023-01-23T20:09:35.416Z,86.40
2023-01-23T20:12:05.463Z,86.40
2023-01-23T20:14:35.252Z,86.30
2023-01-23T20:17:04.728Z,86.00
2023-01-23T20:19:35.664Z,86.00
2023-01-23T20:22:05.061Z,86.20
2023-01-23T20:24:34.420Z,86.10
2023-01-23T20:27:04.170Z,85.90
2023-01-23T20:29:34.236Z,85.90
2023-01-23T20:32:03.737Z,85.80
2023-01-23T20:34:34.169Z,85.70
2023-01-23T20:37:03.626Z,85.80
2023-01-23T20:39:33.591Z,85.90
2023-01-23T20:42:03.474Z,85.70
2023-01-23T20:44:33.377Z,85.70
2023-01-23T20:47:02.757Z,85.50
2023-01-23T20:49:32.120Z,85.40
2023-01-23T20:52:21.616Z,85.90
2023-01-23T20:54:50.980Z,85.60
2023-01-23T20:57:20.764Z,85.50
2023-01-23T20:59:50.582Z,85.30
2023-01-23T21:02:27.062Z,85.50
2023-01-23T21:04:56.703Z,85.40
2023-01-23T21:07:27.768Z,85.50
2023-01-23T21:09:57.501Z,85.60
2023-01-23T21:12:26.876Z,85.80
2023-01-23T21:14:56.276Z,86.10
2023-01-23T21:17:26.077Z,85.90
2023-01-23T21:19:55.461Z,86.30
2023-01-23T21:22:24.849Z,86.60
2023-01-23T21:24:54.667Z,86.70
2023-01-23T21:27:25.264Z,87.00
2023-01-23T21:29:56.031Z,87.20
2023-01-23T21:32:25.814Z,87.10
2023-01-23T21:34:57.120Z,87.00
2023-01-23T21:37:26.656Z,86.80
2023-01-23T21:39:56.057Z,86.80
2023-01-23T21:42:30.981Z,86.20
2023-01-23T21:45:00.396Z,86.20
2023-01-23T21:47:29.793Z,86.40
